Time;durP1;ratioP1;P1;durP2;ratioP2;P2;SDS_P1;SDS_P2;PMS_P1;PMS_P2;Temp;Humidity;BMP_temperature;BMP_pressure;BME280_temperature;BME280_humidity;BME280_pressure;Samples;Min_cycle;Max_cycle;Signal;HPM_P1;HPM_P2
2022/05/29 00:01:44;;;;;;;2.65;1.67;;;12.90;1.00;;;;;;7365061;19;20014;-60
2022/05/29 00:04:14;;;;;;;3.72;2.13;;;12.80;1.00;;;;;;7363053;19;20006;-60
2022/05/29 00:06:46;;;;;;;4.38;2.10;;;12.80;1.00;;;;;;7365391;19;20017;-60
2022/05/29 00:09:20;;;;;;;3.33;1.88;;;12.90;1.00;;;;;;7361222;19;20534;-60
2022/05/29 00:11:50;;;;;;;2.47;1.98;;;12.80;1.00;;;;;;7384328;19;20623;-60
2022/05/29 00:14:22;;;;;;;3.92;2.20;;;12.80;1.00;;;;;;7364461;19;20010;-60
2022/05/29 00:16:52;;;;;;;3.65;1.83;;;12.70;1.00;;;;;;7365428;19;20025;-59
2022/05/29 00:19:22;;;;;;;4.78;1.90;;;12.70;1.00;;;;;;7358987;19;20493;-60
2022/05/29 00:21:53;;;;;;;3.53;2.20;;;12.80;1.00;;;;;;7361271;19;20014;-60
2022/05/29 00:24:23;;;;;;;3.47;1.90;;;12.80;1.00;;;;;;7365171;19;20533;-60
2022/05/29 00:26:53;;;;;;;3.67;1.88;;;12.70;1.00;;;;;;7385604;19;20395;-60
2022/05/29 00:29:26;;;;;;;5.22;2.33;;;12.70;1.00;;;;;;7361034;19;20015;-60
2022/05/29 00:31:56;;;;;;;2.97;1.77;;;12.70;1.00;;;;;;7362054;19;20454;-60
2022/05/29 00:34:26;;;;;;;5.15;2.53;;;12.70;1.00;;;;;;7363712;19;20002;-60
2022/05/29 00:36:58;;;;;;;6.07;2.65;;;12.70;1.00;;;;;;7364056;19;20024;-60
2022/05/29 00:39:29;;;;;;;3.83;1.92;;;12.60;1.00;;;;;;7360963;19;20470;-59
2022/05/29 00:41:59;;;;;;;4.43;2.88;;;12.60;1.00;;;;;;7381918;19;20474;-58
2022/05/29 00:44:33;;;;;;;4.70;1.92;;;12.60;1.00;;;;;;7368535;19;20138;-59
2022/05/29 00:47:12;;;;;;;5.05;2.20;;;12.60;1.00;;;;;;7370936;19;20017;-59
2022/05/29 00:49:43;;;;;;;5.28;2.13;;;12.50;1.00;;;;;;7367799;19;20021;-60
2022/05/29 00:52:17;;;;;;;3.78;2.20;;;12.50;1.00;;;;;;7368814;19;20097;-58
2022/05/29 00:54:53;;;;;;;3.50;2.30;;;12.40;1.00;;;;;;7371468;19;20081;-60
2022/05/29 00:57:28;;;;;;;3.80;2.13;;;12.40;1.00;;;;;;7370661;19;20029;-60
2022/05/29 01:00:01;;;;;;;;;;;12.40;1.00;;;;;;7389727;19;20115;-59
2022/05/29 01:02:31;;;;;;;4.15;2.30;;;12.50;1.00;;;;;;7365393;19;19919;-61
2022/05/29 01:05:01;;;;;;;6.28;2.38;;;12.40;1.00;;;;;;7369389;19;20006;-59
2022/05/29 01:07:31;;;;;;;4.60;2.50;;;12.40;1.00;;;;;;7370714;19;20494;-58
2022/05/29 01:10:03;;;;;;;5.40;2.45;;;12.40;1.00;;;;;;7367181;19;20082;-59
2022/05/29 01:12:42;;;;;;;4.78;2.60;;;12.40;1.00;;;;;;7368233;19;20014;-59
2022/05/29 01:15:26;;;;;;;4.55;2.58;;;12.30;1.00;;;;;;7369099;19;20054;-60
2022/05/29 01:18:03;;;;;;;4.13;2.38;;;12.30;1.00;;;;;;7391549;19;20015;-59
2022/05/29 01:20:57;;;;;;;2.88;1.95;;;12.30;1.00;;;;;;7368661;19;20426;-60
2022/05/29 01:23:58;;;;;;;6.43;2.40;;;12.30;1.00;;;;;;7368697;19;20106;-60
2022/05/29 01:27:04;;;;;;;4.45;2.00;;;12.20;1.00;;;;;;7369375;19;20019;-60
2022/05/29 01:29:43;;;;;;;4.32;2.13;;;12.20;1.00;;;;;;7366733;19;20002;-59
2022/05/29 01:32:19;;;;;;;7.60;2.10;;;12.20;1.00;;;;;;7367085;19;20010;-60
2022/05/29 01:34:54;;;;;;;2.90;2.00;;;12.20;1.00;;;;;;7369039;19;20038;-60
2022/05/29 01:37:30;;;;;;;3.22;1.95;;;12.10;1.00;;;;;;7369662;19;20010;-60
2022/05/29 01:40:07;;;;;;;3.40;1.80;;;12.10;1.00;;;;;;7365875;19;20010;-59
2022/05/29 01:42:40;;;;;;;4.70;1.70;;;12.10;1.00;;;;;;7364965;19;20018;-60
2022/05/29 01:45:17;;;;;;;5.20;1.95;;;12.10;1.00;;;;;;7370597;19;20010;-58
2022/05/29 01:47:52;;;;;;;8.00;2.10;;;12.10;1.00;;;;;;7390811;19;20389;-60
2022/05/29 01:50:26;;;;;;;2.70;1.70;;;12.10;1.00;;;;;;7365985;19;20022;-59
2022/05/29 01:52:59;;;;;;;;;;;12.10;1.00;;;;;;7367542;19;20074;-59
2022/05/29 01:55:35;;;;;;;7.85;2.10;;;12.00;1.00;;;;;;7368438;19;19922;-59
2022/05/29 01:58:10;;;;;;;3.80;1.95;;;12.00;1.00;;;;;;7367143;19;20014;-59
2022/05/29 02:00:44;;;;;;;3.05;1.90;;;11.90;1.00;;;;;;7370006;19;20025;-61
2022/05/29 02:03:17;;;;;;;3.47;1.73;;;11.90;1.00;;;;;;7364731;19;20014;-61
2022/05/29 02:05:51;;;;;;;3.95;1.40;;;11.90;1.00;;;;;;7389429;19;20016;-61
2022/05/29 02:08:25;;;;;;;3.23;1.53;;;11.90;1.00;;;;;;7363673;19;20158;-60
2022/05/29 02:10:59;;;;;;;5.68;1.75;;;11.90;1.00;;;;;;7368404;19;20011;-61
2022/05/29 02:13:34;;;;;;;2.63;1.70;;;11.80;1.00;;;;;;7365803;19;20003;-59
2022/05/29 02:16:11;;;;;;;2.65;1.65;;;11.70;1.00;;;;;;7368424;19;20014;-61
2022/05/29 02:18:48;;;;;;;5.40;1.88;;;11.60;1.00;;;;;;7364281;19;20014;-60
2022/05/29 02:21:22;;;;;;;4.30;1.70;;;11.50;1.00;;;;;;7368552;19;20013;-61
2022/05/29 02:23:54;;;;;;;5.45;2.08;;;11.50;1.00;;;;;;7388274;19;20006;-61
2022/05/29 02:26:26;;;;;;;4.93;2.35;;;11.70;1.00;;;;;;7367445;19;20135;-59
2022/05/29 02:29:00;;;;;;;7.22;1.98;;;11.70;1.00;;;;;;7364025;19;20470;-61
2022/05/29 02:31:43;;;;;;;4.60;2.30;;;11.50;1.00;;;;;;7368094;19;20025;-59
2022/05/29 02:34:20;;;;;;;5.88;2.58;;;11.50;1.00;;;;;;7367191;19;20014;-60
2022/05/29 02:36:55;;;;;;;4.05;1.77;;;11.50;1.00;;;;;;7368196;19;20003;-60
2022/05/29 02:39:40;;;;;;;5.22;1.90;;;11.50;1.00;;;;;;7363710;19;20470;-61
2022/05/29 02:42:16;;;;;;;;;;;11.40;1.00;;;;;;7369930;19;20020;-61
2022/05/29 02:44:55;;;;;;;4.30;1.83;;;11.40;1.00;;;;;;7389173;19;19910;-58
2022/05/29 02:47:39;;;;;;;5.30;2.10;;;11.40;1.00;;;;;;7367149;19;20021;-60
2022/05/29 02:50:23;;;;;;;3.33;2.10;;;11.40;1.00;;;;;;7362865;19;20462;-59
2022/05/29 02:52:54;;;;;;;3.85;1.95;;;11.30;1.00;;;;;;7364544;19;20010;-60
2022/05/29 02:55:26;;;;;;;4.70;2.20;;;11.30;1.00;;;;;;7367809;19;20011;-60
2022/05/29 02:58:00;;;;;;;2.83;1.90;;;11.30;1.00;;;;;;7367179;19;20007;-59
2022/05/29 03:00:48;;;;;;;9.02;2.30;;;11.30;1.00;;;;;;7366005;19;20018;-59
2022/05/29 03:03:31;;;;;;;4.32;2.20;;;11.20;1.00;;;;;;7362663;19;20011;-59
2022/05/29 03:06:16;;;;;;;3.30;2.05;;;11.30;1.00;;;;;;7386469;19;20387;-59
2022/05/29 03:08:56;;;;;;;4.30;2.40;;;11.20;1.00;;;;;;7361988;19;20021;-59
2022/05/29 03:11:38;;;;;;;4.22;2.15;;;11.10;1.00;;;;;;7366476;19;20010;-59
2022/05/29 03:14:13;;;;;;;5.15;2.63;;;11.00;1.00;;;;;;7364668;19;20093;-59
2022/05/29 03:16:54;;;;;;;3.10;2.08;;;11.00;1.00;;;;;;7367011;19;20022;-58
2022/05/29 03:19:41;;;;;;;3.92;2.35;;;11.10;1.00;;;;;;7363529;19;20014;-59
2022/05/29 03:22:20;;;;;;;4.60;2.22;;;11.00;1.00;;;;;;7364149;19;20015;-58
2022/05/29 03:24:56;;;;;;;4.60;2.13;;;10.90;1.00;;;;;;7366959;19;20035;-59
2022/05/29 03:27:31;;;;;;;3.72;2.22;;;10.80;1.00;;;;;;7365724;19;20032;-59
2022/05/29 03:30:07;;;;;;;3.67;2.33;;;10.80;1.00;;;;;;7384999;19;20021;-58
2022/05/29 03:32:39;;;;;;;4.50;2.40;;;10.70;1.00;;;;;;7363017;19;20077;-59
2022/05/29 03:35:24;;;;;;;5.88;2.72;;;10.60;1.00;;;;;;7364607;19;20470;-58
2022/05/29 03:37:55;;;;;;;4.15;2.50;;;10.60;1.00;;;;;;7365624;19;20023;-59
2022/05/29 03:40:27;;;;;;;5.88;2.63;;;10.50;1.00;;;;;;7363464;19;20011;-59
2022/05/29 03:42:57;;;;;;;6.47;3.13;;;10.40;1.00;;;;;;7363624;19;20082;-59
2022/05/29 03:45:28;;;;;;;5.47;2.72;;;10.40;1.00;;;;;;7366331;19;20018;-59
2022/05/29 03:47:58;;;;;;;5.68;2.85;;;10.30;1.00;;;;;;7387555;19;20033;-59
2022/05/29 03:50:31;;;;;;;6.03;2.72;;;10.30;1.00;;;;;;7363935;19;20015;-58
2022/05/29 03:53:01;;;;;;;4.10;2.47;;;10.30;1.00;;;;;;7362510;19;20376;-59
2022/05/29 03:55:32;;;;;;;3.38;2.40;;;10.30;1.00;;;;;;7365698;19;20490;-58
2022/05/29 03:58:02;;;;;;;7.40;3.05;;;10.30;1.00;;;;;;7364305;19;20011;-59
2022/05/29 04:00:32;;;;;;;5.53;2.97;;;10.40;1.00;;;;;;7364828;19;20011;-59
2022/05/29 04:03:02;;;;;;;6.13;3.03;;;10.40;1.00;;;;;;7384038;19;20409;-59
2022/05/29 04:05:35;;;;;;;2.83;2.13;;;10.30;1.00;;;;;;7363623;19;20467;-59
2022/05/29 04:13:31;;;;;;;4.15;2.35;;;10.10;1.00;;;;;;7359715;19;20506;-59
2022/05/29 04:16:01;;;;;;;8.30;2.80;;;10.20;1.00;;;;;;7362934;19;20014;-59
2022/05/29 04:18:31;;;;;;;4.90;2.13;;;10.10;1.00;;;;;;7359343;19;20042;-59
2022/05/29 04:21:03;;;;;;;4.57;2.90;;;10.10;1.00;;;;;;7386369;19;20018;-59
2022/05/29 04:23:33;;;;;;;5.93;2.22;;;10.10;1.00;;;;;;7359975;19;20033;-59
2022/05/29 04:26:03;;;;;;;3.72;2.10;;;10.10;1.00;;;;;;7365814;19;20510;-59
2022/05/29 04:28:33;;;;;;;4.43;1.98;;;10.00;1.00;;;;;;7361474;19;20462;-59
2022/05/29 04:31:05;;;;;;;6.35;2.10;;;10.00;1.00;;;;;;7365348;19;20010;-59
2022/05/29 04:33:35;;;;;;;5.00;2.20;;;10.10;1.00;;;;;;7361295;19;20011;-60
2022/05/29 04:36:08;;;;;;;3.80;2.20;;;10.20;1.00;;;;;;7385811;19;20025;-59
2022/05/29 04:38:38;;;;;;;5.85;1.95;;;10.10;1.00;;;;;;7360676;19;20521;-59
2022/05/29 04:41:10;;;;;;;5.63;2.00;;;10.10;1.00;;;;;;7364228;19;20014;-59
2022/05/29 04:43:40;;;;;;;4.82;2.20;;;10.20;1.00;;;;;;7360186;19;20041;-59
2022/05/29 04:46:10;;;;;;;4.50;2.28;;;10.20;1.00;;;;;;7365737;19;20094;-59
2022/05/29 04:48:41;;;;;;;6.25;2.17;;;10.30;1.00;;;;;;7359902;19;20011;-59
2022/05/29 04:51:13;;;;;;;2.65;1.90;;;10.20;1.00;;;;;;7365157;19;20024;-60
2022/05/29 04:53:44;;;;;;;3.60;1.70;;;10.30;1.00;;;;;;7381570;19;20014;-59
2022/05/29 04:56:14;;;;;;;5.05;2.35;;;10.40;1.00;;;;;;7364949;19;20017;-59
2022/05/29 04:58:43;;;;;;;3.47;1.80;;;10.50;1.00;;;;;;7360323;19;20079;-60
2022/05/29 05:01:13;;;;;;;4.55;2.40;;;10.50;1.00;;;;;;7363148;19;20006;-60
2022/05/29 05:03:44;;;;;;;5.22;1.85;;;10.40;1.00;;;;;;7359793;19;20081;-60
2022/05/29 05:06:16;;;;;;;3.03;2.03;;;10.60;1.00;;;;;;7364532;19;20601;-60
2022/05/29 05:08:46;;;;;;;3.20;1.60;;;11.40;1.00;;;;;;7381863;19;20474;-59
2022/05/29 05:11:16;;;;;;;3.65;1.88;;;12.20;1.00;;;;;;7363482;19;20002;-59
2022/05/29 05:13:46;;;;;;;4.85;2.00;;;11.70;1.00;;;;;;7359859;19;20490;-59
2022/05/29 05:16:16;;;;;;;3.60;1.88;;;13.30;1.00;;;;;;7364732;19;20016;-59
2022/05/29 05:18:46;;;;;;;4.53;1.67;;;14.40;1.00;;;;;;7359079;19;20007;-60
2022/05/29 05:21:19;;;;;;;5.63;1.92;;;15.10;1.00;;;;;;7363949;19;20018;-60
2022/05/29 05:23:49;;;;;;;4.07;1.60;;;15.80;1.00;;;;;;7379703;19;20035;-60
2022/05/29 05:26:19;;;;;;;4.35;1.70;;;16.10;1.00;;;;;;7363285;19;20017;-58
2022/05/29 05:28:49;;;;;;;4.57;1.92;;;16.00;1.00;;;;;;7359376;19;20528;-58
2022/05/29 05:31:19;;;;;;;3.28;1.58;;;16.30;1.00;;;;;;7370557;19;20010;-58
2022/05/29 05:33:49;;;;;;;2.75;1.65;;;15.40;1.00;;;;;;7367007;19;20014;-59
2022/05/29 05:36:22;;;;;;;2.58;1.38;;;15.60;1.00;;;;;;7371167;19;20010;-60
2022/05/29 05:38:53;;;;;;;5.78;1.80;;;15.00;1.00;;;;;;7387943;19;20014;-59
2022/05/29 05:41:24;;;;;;;4.18;1.70;;;13.20;1.00;;;;;;7369007;19;20021;-59
2022/05/29 05:43:53;;;;;;;2.97;1.80;;;12.90;1.00;;;;;;7365421;19;20474;-59
2022/05/29 05:46:23;;;;;;;4.88;1.90;;;12.90;1.00;;;;;;7370991;19;20502;-59
2022/05/29 05:48:53;;;;;;;2.55;1.60;;;12.60;1.00;;;;;;7366810;19;20014;-59
2022/05/29 05:51:26;;;;;;;5.80;1.95;;;12.10;1.00;;;;;;7369624;19;20373;-59
2022/05/29 05:53:56;;;;;;;6.13;1.90;;;12.30;1.00;;;;;;7387874;19;20028;-59
2022/05/29 05:56:26;;;;;;;4.30;2.08;;;12.00;1.00;;;;;;7369828;19;20002;-59
2022/05/29 05:58:56;;;;;;;4.68;1.88;;;12.00;1.00;;;;;;7364119;19;20014;-59
2022/05/29 06:01:25;;;;;;;3.38;1.75;;;12.00;1.00;;;;;;7370424;19;20395;-59
2022/05/29 06:04:00;;;;;;;4.10;1.83;;;12.40;1.00;;;;;;7363727;19;20691;-59
2022/05/29 06:06:32;;;;;;;5.22;1.50;;;13.50;1.00;;;;;;7368562;19;20016;-60
2022/05/29 06:09:03;;;;;;;5.45;1.65;;;14.00;1.00;;;;;;7387505;19;20734;-59
2022/05/29 06:11:33;;;;;;;4.13;1.90;;;13.00;1.00;;;;;;7370288;19;20101;-58
2022/05/29 06:14:03;;;;;;;8.77;1.75;;;12.60;1.00;;;;;;7365438;19;20557;-59
2022/05/29 06:16:33;;;;;;;2.90;1.80;;;12.50;1.00;;;;;;7370457;19;20473;-60
2022/05/29 06:19:05;;;;;;;3.80;1.73;;;12.80;1.00;;;;;;7365883;19;20002;-61
2022/05/29 06:21:38;;;;;;;6.00;2.00;;;13.30;1.00;;;;;;7370015;19;20011;-59
2022/05/29 06:24:08;;;;;;;3.42;1.63;;;13.30;1.00;;;;;;7386430;19;20021;-60
2022/05/29 06:26:38;;;;;;;4.53;2.00;;;13.60;1.00;;;;;;7369342;19;20010;-59
2022/05/29 06:29:08;;;;;;;3.28;1.83;;;14.00;1.00;;;;;;7364441;19;20019;-60
2022/05/29 06:31:38;;;;;;;4.47;1.70;;;14.10;1.00;;;;;;7368784;19;20010;-60
2022/05/29 06:34:08;;;;;;;3.38;1.77;;;13.40;1.00;;;;;;7364229;19;20025;-60
2022/05/29 06:36:42;;;;;;;5.47;2.05;;;12.90;1.00;;;;;;7368986;19;20014;-60
2022/05/29 06:39:12;;;;;;;2.42;1.50;;;12.70;1.00;;;;;;7364174;19;20007;-58
2022/05/29 06:41:41;;;;;;;2.92;1.48;;;12.70;1.00;;;;;;7388820;19;20018;-58
2022/05/29 06:44:11;;;;;;;6.80;1.83;;;12.30;1.00;;;;;;7363385;19;20018;-59
2022/05/29 06:46:41;;;;;;;4.10;1.75;;;12.30;1.00;;;;;;7369105;19;20013;-59
2022/05/29 06:49:12;;;;;;;4.53;1.67;;;12.30;1.00;;;;;;7362267;19;20487;-60
2022/05/29 06:51:45;;;;;;;4.35;1.60;;;12.60;1.00;;;;;;7368778;19;20106;-59
2022/05/29 06:54:14;;;;;;;5.10;1.73;;;12.30;1.00;;;;;;7362398;19;20081;-60
2022/05/29 06:56:44;;;;;;;4.53;1.75;;;12.30;1.00;;;;;;7390376;19;20017;-60
2022/05/29 06:59:14;;;;;;;4.28;1.85;;;12.60;1.00;;;;;;7362684;19;20015;-59
2022/05/29 07:07:16;;;;;;;7.35;1.67;;;12.30;1.00;;;;;;7368330;19;20581;-59
2022/05/29 07:09:46;;;;;;;6.05;1.92;;;12.50;1.00;;;;;;7363292;19;20394;-59
2022/05/29 07:12:20;;;;;;;5.13;1.33;;;12.30;1.00;;;;;;7363792;19;20014;-60
2022/05/29 07:14:53;;;;;;;5.22;2.22;;;12.50;1.00;;;;;;7387806;19;20077;-59
2022/05/29 07:17:23;;;;;;;7.18;2.40;;;12.00;1.00;;;;;;7367441;19;20010;-58
2022/05/29 07:19:53;;;;;;;4.28;1.65;;;11.90;1.00;;;;;;7361448;19;20081;-59
2022/05/29 07:22:26;;;;;;;6.60;2.08;;;11.80;1.00;;;;;;7363119;19;20002;-59
2022/05/29 07:24:55;;;;;;;6.45;2.42;;;11.90;1.00;;;;;;7366330;19;20082;-59
2022/05/29 07:27:25;;;;;;;4.93;2.13;;;12.10;1.00;;;;;;7368186;19;20029;-59
2022/05/29 07:29:56;;;;;;;8.45;2.35;;;12.10;1.00;;;;;;7383263;19;20033;-58
2022/05/29 07:32:26;;;;;;;4.18;2.05;;;12.00;1.00;;;;;;7362583;19;20007;-58
2022/05/29 07:34:55;;;;;;;4.63;2.28;;;12.10;1.00;;;;;;7364986;19;20007;-59
2022/05/29 07:37:28;;;;;;;10.27;2.33;;;11.90;1.00;;;;;;7366905;19;20036;-58
2022/05/29 07:40:00;;;;;;;6.57;1.88;;;12.00;1.00;;;;;;7362828;19;20018;-58
2022/05/29 07:45:13;;;;;;;3.42;1.98;;;12.00;1.00;;;;;;7365300;19;20593;-60
2022/05/29 07:47:45;;;;;;;6.45;1.90;;;12.30;1.00;;;;;;7388698;19;20006;-59
2022/05/29 07:50:20;;;;;;;3.83;1.65;;;12.40;1.00;;;;;;7358113;19;20023;-59
2022/05/29 07:52:54;;;;;;;5.97;2.22;;;12.50;1.00;;;;;;7361196;19;20011;-59
2022/05/29 07:55:25;;;;;;;6.22;1.85;;;12.70;1.00;;;;;;7365865;19;20018;-60
2022/05/29 07:57:55;;;;;;;8.82;2.63;;;13.10;1.00;;;;;;7366948;19;20030;-59
2022/05/29 08:00:26;;;;;;;4.22;1.83;;;13.80;1.00;;;;;;7362614;19;20018;-59
2022/05/29 08:02:55;;;;;;;3.55;1.60;;;13.40;1.00;;;;;;7383799;19;20079;-59
2022/05/29 08:05:25;;;;;;;5.07;1.73;;;13.40;1.00;;;;;;7363729;19;20049;-59
2022/05/29 08:07:58;;;;;;;5.63;1.90;;;12.90;1.00;;;;;;7366347;19;20010;-59
2022/05/29 08:10:29;;;;;;;5.28;2.15;;;13.00;1.00;;;;;;7362708;19;20047;-59
2022/05/29 08:12:58;;;;;;;7.75;1.88;;;13.20;1.00;;;;;;7361649;19;20010;-59
2022/05/29 08:15:29;;;;;;;6.60;2.00;;;13.10;1.00;;;;;;7364459;19;20161;-59
2022/05/29 08:17:59;;;;;;;9.45;2.38;;;14.10;1.00;;;;;;7386300;19;20381;-59
2022/05/29 08:20:30;;;;;;;6.80;1.83;;;14.40;1.00;;;;;;7361610;19;20074;-60
2022/05/29 08:23:02;;;;;;;6.10;1.83;;;14.30;1.00;;;;;;7361303;19;20015;-59
2022/05/29 08:30:57;;;;;;;4.22;2.20;;;13.70;1.00;;;;;;7362745;19;20010;-60
2022/05/29 08:33:29;;;;;;;6.40;2.58;;;12.90;1.00;;;;;;7361309;19;20053;-59
2022/05/29 08:36:03;;;;;;;3.95;1.83;;;13.20;1.00;;;;;;7384951;19;20014;-59
2022/05/29 08:38:37;;;;;;;6.55;2.08;;;13.50;1.00;;;;;;7362822;19;20021;-59
2022/05/29 08:41:09;;;;;;;6.10;1.83;;;13.00;1.00;;;;;;7362053;19;20109;-60
2022/05/29 08:43:58;;;;;;;4.63;1.85;;;13.40;1.00;;;;;;7359819;19;20492;-59
2022/05/29 08:46:34;;;;;;;7.95;2.10;;;13.40;1.00;;;;;;7364381;19;20556;-59
2022/05/29 08:49:05;;;;;;;5.07;1.90;;;13.60;1.00;;;;;;7360315;19;20010;-60
2022/05/29 08:52:16;;;;;;;6.53;2.33;;;13.60;1.00;;;;;;7364656;19;20010;-59
2022/05/29 08:54:52;;;;;;;5.43;1.55;;;13.40;1.00;;;;;;7362044;19;20017;-58
2022/05/29 08:57:47;;;;;;;3.72;1.90;;;13.40;1.00;;;;;;7364533;19;20069;-59
2022/05/29 09:00:23;;;;;;;8.27;1.73;;;13.10;1.00;;;;;;7358972;19;20015;-60
2022/05/29 09:03:07;;;;;;;3.65;1.63;;;13.10;1.00;;;;;;7380787;19;20006;-59
2022/05/29 09:05:42;;;;;;;4.63;1.90;;;12.80;1.00;;;;;;7367133;19;20018;-59
2022/05/29 09:08:15;;;;;;;4.57;1.75;;;13.00;1.00;;;;;;7369926;19;20511;-59
2022/05/29 09:10:49;;;;;;;5.35;2.00;;;13.00;1.00;;;;;;7368609;19;20462;-58
2022/05/29 09:13:23;;;;;;;;;;;12.90;1.00;;;;;;7367437;19;20090;-59
2022/05/29 09:15:56;;;;;;;3.03;1.63;;;13.00;1.00;;;;;;7370942;19;19918;-58
2022/05/29 09:18:29;;;;;;;6.85;1.70;;;13.00;1.00;;;;;;7369606;19;20014;-61
2022/05/29 09:21:04;;;;;;;5.70;1.48;;;13.00;1.00;;;;;;7389914;19;20109;-59
2022/05/29 09:23:38;;;;;;;3.85;1.77;;;12.90;1.00;;;;;;7366542;19;20021;-59
2022/05/29 09:26:16;;;;;;;5.40;1.50;;;12.80;1.00;;;;;;7370126;19;20025;-59
2022/05/29 09:28:47;;;;;;;5.50;2.17;;;13.10;1.00;;;;;;7369587;19;20013;-60
2022/05/29 09:31:20;;;;;;;6.07;2.92;;;12.70;1.00;;;;;;7369060;19;20010;-60
2022/05/29 09:33:51;;;;;;;5.53;1.95;;;12.40;1.00;;;;;;7365051;19;20021;-60
2022/05/29 09:36:27;;;;;;;3.97;1.85;;;12.80;1.00;;;;;;7371379;19;20359;-60
2022/05/29 09:39:03;;;;;;;3.80;1.70;;;12.70;1.00;;;;;;7389869;19;20074;-60
2022/05/29 09:41:41;;;;;;;5.80;2.35;;;12.70;1.00;;;;;;7368569;19;20018;-59
2022/05/29 09:44:14;;;;;;;4.00;1.83;;;13.00;1.00;;;;;;7364552;19;20011;-59
2022/05/29 09:46:46;;;;;;;5.53;1.92;;;13.10;1.00;;;;;;7369465;19;20014;-59
2022/05/29 09:52:11;;;;;;;5.60;1.70;;;13.00;1.00;;;;;;7367167;19;20016;-59
2022/05/29 09:54:46;;;;;;;5.85;1.55;;;12.90;1.00;;;;;;7367590;19;20075;-58
2022/05/29 09:57:26;;;;;;;3.05;1.48;;;13.20;1.00;;;;;;7369804;19;20490;-61
2022/05/29 10:00:04;;;;;;;6.35;1.80;;;13.50;1.00;;;;;;7386486;19;20093;-59
2022/05/29 10:02:39;;;;;;;3.42;1.80;;;13.90;1.00;;;;;;7366291;19;20019;-59
2022/05/29 10:05:21;;;;;;;4.72;1.50;;;13.60;1.00;;;;;;7367054;19;20468;-58
2022/05/29 10:07:51;;;;;;;5.72;1.92;;;13.90;1.00;;;;;;7369756;19;20015;-60
2022/05/29 10:10:33;;;;;;;5.95;1.48;;;13.80;1.00;;;;;;7365783;19;20010;-58
2022/05/29 10:13:06;;;;;;;4.88;1.88;;;13.70;1.00;;;;;;7365017;19;20279;-59
2022/05/29 10:15:39;;;;;;;4.43;1.80;;;13.20;1.00;;;;;;7367366;19;20018;-60
2022/05/29 10:18:15;;;;;;;5.80;1.83;;;13.20;1.00;;;;;;7384925;19;20488;-60
2022/05/29 10:20:47;;;;;;;4.90;1.65;;;13.20;1.00;;;;;;7387809;19;20101;-59
2022/05/29 10:23:34;;;;;;;2.17;1.23;;;13.20;1.00;;;;;;7364784;19;20022;-61
2022/05/29 10:26:15;;;;;;;5.85;1.90;;;14.00;1.00;;;;;;7367903;19;20094;-61
2022/05/29 10:28:47;;;;;;;4.75;1.48;;;13.90;1.00;;;;;;7367048;19;20010;-60
2022/05/29 10:31:27;;;;;;;2.85;1.52;;;14.10;1.00;;;;;;7365972;19;20011;-59
2022/05/29 10:34:09;;;;;;;2.47;1.15;;;14.10;1.00;;;;;;7364530;19;20027;-60
2022/05/29 10:36:41;;;;;;;5.13;1.80;;;13.50;1.00;;;;;;7368814;19;20542;-60
2022/05/29 10:39:14;;;;;;;6.80;1.90;;;13.70;1.00;;;;;;7361944;19;20014;-60
2022/05/29 10:41:45;;;;;;;6.10;1.95;;;13.80;1.00;;;;;;7390064;19;20022;-59
2022/05/29 10:44:40;;;;;;;3.50;1.20;;;13.60;1.00;;;;;;7364515;19;20034;-59
2022/05/29 10:47:20;;;;;;;4.47;1.67;;;13.20;1.00;;;;;;7367280;19;20074;-60
2022/05/29 10:50:03;;;;;;;3.50;1.63;;;13.40;1.00;;;;;;7362642;19;20014;-60
2022/05/29 10:53:06;;;;;;;4.72;1.52;;;13.60;1.00;;;;;;7363583;19;20011;-60
2022/05/29 10:55:47;;;;;;;3.58;1.20;;;13.60;1.00;;;;;;7365978;19;20766;-59
2022/05/29 10:58:46;;;;;;;6.03;1.40;;;13.00;1.00;;;;;;7366178;19;20113;-59
2022/05/29 11:04:45;;;;;;;4.70;1.95;;;13.50;1.00;;;;;;7365971;19;20007;-60
2022/05/29 11:07:34;;;;;;;5.18;1.77;;;13.00;1.00;;;;;;7367740;19;20500;-59
2022/05/29 11:10:20;;;;;;;3.60;1.80;;;13.60;1.00;;;;;;7361536;19;20098;-60
2022/05/29 11:13:06;;;;;;;5.75;1.80;;;13.00;1.00;;;;;;7364416;19;20415;-59
2022/05/29 11:15:43;;;;;;;4.18;1.38;;;13.20;1.00;;;;;;7365701;19;20019;-60
2022/05/29 11:18:45;;;;;;;7.18;1.83;;;12.80;1.00;;;;;;7365013;19;20011;-59
2022/05/29 11:21:25;;;;;;;4.50;1.80;;;12.70;1.00;;;;;;7365142;19;20099;-58
2022/05/29 11:24:10;;;;;;;3.38;1.60;;;13.10;1.00;;;;;;7384204;19;20070;-60
2022/05/29 11:26:49;;;;;;;3.75;1.65;;;12.90;1.00;;;;;;7366203;19;20103;-60
2022/05/29 11:29:34;;;;;;;8.98;2.10;;;12.70;1.00;;;;;;7362421;19;20086;-61
2022/05/29 11:32:35;;;;;;;3.05;1.42;;;12.80;1.00;;;;;;7363138;19;20003;-60
2022/05/29 11:35:19;;;;;;;3.00;1.35;;;12.40;1.00;;;;;;7363310;19;20006;-59
2022/05/29 11:38:19;;;;;;;4.63;1.38;;;12.30;1.00;;;;;;7366146;19;20047;-60
2022/05/29 11:40:53;;;;;;;4.28;1.65;;;12.60;1.00;;;;;;7363016;19;20018;-60
2022/05/29 11:43:29;;;;;;;4.03;1.92;;;12.50;1.00;;;;;;7361999;19;20007;-60
2022/05/29 11:51:57;;;;;;;3.83;1.67;;;12.40;1.00;;;;;;7361379;19;20509;-59
2022/05/29 11:54:35;;;;;;;4.13;1.38;;;12.70;1.00;;;;;;7364170;19;20486;-60
2022/05/29 11:57:11;;;;;;;5.32;1.80;;;12.80;1.00;;;;;;7389025;19;20010;-59
2022/05/29 11:59:52;;;;;;;3.65;1.23;;;12.60;1.00;;;;;;7360801;19;20007;-60
2022/05/29 12:02:29;;;;;;;4.60;1.70;;;12.40;1.00;;;;;;7362960;19;20011;-61
2022/05/29 12:05:05;;;;;;;3.05;1.60;;;13.00;1.00;;;;;;7363477;19;20015;-60
2022/05/29 12:07:41;;;;;;;5.43;2.20;;;13.30;1.00;;;;;;7365861;19;20017;-60
2022/05/29 12:10:23;;;;;;;3.15;0.82;;;13.30;1.00;;;;;;7360516;19;20015;-60
2022/05/29 12:13:01;;;;;;;1.23;0.70;;;13.60;1.00;;;;;;7363417;19;20055;-59
2022/05/29 12:15:33;;;;;;;2.95;1.42;;;13.40;1.00;;;;;;7365136;19;20397;-60
2022/05/29 12:18:07;;;;;;;4.57;1.60;;;13.30;1.00;;;;;;7385406;19;20007;-62
2022/05/29 12:20:43;;;;;;;4.13;1.50;;;13.60;1.00;;;;;;7362867;19;20042;-58
2022/05/29 12:23:31;;;;;;;1.38;0.90;;;13.40;1.00;;;;;;7360330;19;20017;-60
2022/05/29 12:26:06;;;;;;;1.48;0.73;;;14.00;1.00;;;;;;7365481;19;20062;-59
2022/05/29 12:28:46;;;;;;;3.00;0.80;;;13.70;1.00;;;;;;7363089;19;20006;-60
2022/05/29 12:31:21;;;;;;;4.47;0.80;;;14.40;1.00;;;;;;7360174;19;20006;-60
2022/05/29 12:33:52;;;;;;;3.13;0.80;;;14.50;1.00;;;;;;7360991;19;20569;-59
2022/05/29 12:36:38;;;;;;;1.42;0.55;;;15.50;1.00;;;;;;7365785;19;20019;-60
2022/05/29 12:39:25;;;;;;;2.85;1.20;;;15.10;1.00;;;;;;7383344;19;20017;-58
2022/05/29 12:42:28;;;;;;;4.32;1.10;;;15.20;1.00;;;;;;7366388;19;20031;-60
2022/05/29 12:45:26;;;;;;;2.15;0.90;;;16.10;1.00;;;;;;7370396;19;20022;-61
2022/05/29 12:48:27;;;;;;;1.98;1.10;;;15.40;1.00;;;;;;7369771;19;20007;-60
2022/05/29 12:51:11;;;;;;;2.60;0.95;;;15.50;1.00;;;;;;7368921;19;20046;-61
2022/05/29 12:54:16;;;;;;;1.42;0.90;;;15.10;1.00;;;;;;7366311;19;20038;-59
2022/05/29 12:57:22;;;;;;;2.87;0.90;;;15.40;1.00;;;;;;7371941;19;20027;-60
2022/05/29 13:00:13;;;;;;;3.67;1.20;;;15.80;1.00;;;;;;7366067;19;20307;-60
2022/05/29 13:03:19;;;;;;;2.28;1.40;;;15.40;1.00;;;;;;7367722;19;20622;-59
2022/05/29 13:06:28;;;;;;;3.95;1.65;;;15.40;1.00;;;;;;7367926;19;20409;-60
2022/05/29 13:09:14;;;;;;;4.57;1.48;;;14.90;1.00;;;;;;7363519;19;20019;-63
2022/05/29 13:11:52;;;;;;;4.88;2.88;;;14.80;1.00;;;;;;7368751;19;20070;-61
2022/05/29 13:14:27;;;;;;;4.78;1.65;;;14.90;1.00;;;;;;7366293;19;20078;-62
2022/05/29 13:17:08;;;;;;;3.08;1.60;;;14.20;1.00;;;;;;7369730;19;20006;-61
2022/05/29 13:19:59;;;;;;;4.50;1.85;;;14.30;1.00;;;;;;7364508;19;20033;-60
2022/05/29 13:22:48;;;;;;;3.90;1.67;;;14.90;1.00;;;;;;7367080;19;20772;-61
2022/05/29 13:25:20;;;;;;;2.85;1.10;;;15.20;1.00;;;;;;7366099;19;20014;-62
2022/05/29 13:27:51;;;;;;;3.92;1.50;;;14.70;1.00;;;;;;7366331;19;20018;-61
2022/05/29 13:30:54;;;;;;;2.58;0.95;;;14.40;1.00;;;;;;7364192;19;20010;-61
2022/05/29 13:33:53;;;;;;;2.28;1.25;;;15.00;1.00;;;;;;7366136;19;20074;-61
2022/05/29 13:37:05;;;;;;;2.00;1.20;;;15.60;1.00;;;;;;7370695;19;20463;-61
2022/05/29 13:40:04;;;;;;;3.38;1.20;;;15.80;1.00;;;;;;7365940;19;20066;-60
2022/05/29 13:42:40;;;;;;;4.13;1.20;;;15.50;1.00;;;;;;7368724;19;20110;-61
2022/05/29 13:45:49;;;;;;;1.45;1.00;;;15.30;1.00;;;;;;7370203;19;20016;-62
2022/05/29 13:48:24;;;;;;;3.70;1.15;;;15.20;1.00;;;;;;7362488;19;20048;-62
2022/05/29 13:51:05;;;;;;;3.47;1.10;;;15.20;1.00;;;;;;7386173;19;20015;-61
2022/05/29 13:53:46;;;;;;;3.10;1.10;;;15.00;1.00;;;;;;7363959;19;20019;-62
2022/05/29 13:56:23;;;;;;;2.92;1.42;;;14.10;1.00;;;;;;7368373;19;20089;-61
2022/05/29 14:04:45;;;;;;;3.90;1.48;;;14.00;1.00;;;;;;7363590;19;20025;-61
2022/05/29 14:07:20;;;;;;;2.83;1.10;;;14.10;1.00;;;;;;7367838;19;20147;-61
2022/05/29 14:10:18;;;;;;;4.15;1.52;;;13.80;1.00;;;;;;7361629;19;20074;-62
2022/05/29 14:13:09;;;;;;;2.80;1.35;;;13.50;1.00;;;;;;7365592;19;20042;-61
2022/05/29 14:15:51;;;;;;;6.40;1.30;;;13.80;1.00;;;;;;7364557;19;20077;-61
2022/05/29 14:18:28;;;;;;;4.60;1.50;;;13.60;1.00;;;;;;7367405;19;20011;-62
2022/05/29 14:21:19;;;;;;;2.38;1.20;;;14.00;1.00;;;;;;7388568;19;20019;-61
2022/05/29 14:24:03;;;;;;;3.92;1.55;;;13.70;1.00;;;;;;7362108;19;20018;-61